Time;durP1;ratioP1;P1;durP2;ratioP2;P2;SDS_P1;SDS_P2;PMS_P1;PMS_P2;Temp;Humidity;BMP_temperature;BMP_pressure;BME280_temperature;BME280_humidity;BME280_pressure;Samples;Min_cycle;Max_cycle;Signal;HPM_P1;HPM_P2
2023/06/26 00:01:50;;;;;;;8.07;7.27;;;20.60;1.00;;;;;;5014036;28;20411;-70
2023/06/26 00:04:15;;;;;;;8.07;7.37;;;20.50;1.00;;;;;;5014427;28;20901;-71
2023/06/26 00:06:41;;;;;;;9.00;8.17;;;20.40;1.00;;;;;;5014652;28;20207;-70
2023/06/26 00:09:07;;;;;;;9.70;8.70;;;20.30;1.00;;;;;;5014758;28;20200;-70
2023/06/26 00:11:33;;;;;;;8.70;7.90;;;20.30;1.00;;;;;;5014568;28;20202;-70
2023/06/26 00:14:00;;;;;;;8.40;7.60;;;20.30;1.00;;;;;;5014584;28;20497;-70
2023/06/26 00:16:26;;;;;;;7.33;6.63;;;20.20;1.00;;;;;;5014360;28;20180;-70
2023/06/26 00:18:52;;;;;;;9.70;8.17;;;20.20;1.00;;;;;;5014243;28;20443;-70
2023/06/26 00:21:19;;;;;;;8.20;7.47;;;20.20;1.00;;;;;;5014184;28;20465;-70
2023/06/26 00:23:45;;;;;;;9.53;8.53;;;20.10;1.00;;;;;;5014448;28;20415;-70
2023/06/26 00:26:11;;;;;;;9.00;8.10;;;20.10;1.00;;;;;;5014013;28;20415;-70
2023/06/26 00:28:37;;;;;;;9.27;8.40;;;20.10;1.00;;;;;;5013891;28;20509;-71
2023/06/26 00:31:02;;;;;;;9.00;8.20;;;20.10;1.00;;;;;;5014079;28;20827;-71
2023/06/26 00:33:28;;;;;;;9.73;8.03;;;20.00;1.00;;;;;;5013836;28;20177;-71
2023/06/26 00:35:53;;;;;;;7.77;6.97;;;19.90;1.00;;;;;;5013974;28;20182;-70
2023/06/26 00:38:19;;;;;;;9.40;8.50;;;19.90;1.00;;;;;;5013802;28;20278;-70
2023/06/26 00:40:44;;;;;;;7.43;6.73;;;19.80;1.00;;;;;;5013877;28;20606;-70
2023/06/26 00:43:10;;;;;;;8.30;7.27;;;19.80;1.00;;;;;;5013559;28;20183;-71
2023/06/26 00:45:35;;;;;;;7.43;6.70;;;19.70;1.00;;;;;;5013750;28;20234;-71
2023/06/26 00:48:02;;;;;;;9.00;7.47;;;19.70;1.00;;;;;;5013754;28;20208;-71
2023/06/26 00:50:28;;;;;;;9.03;8.07;;;19.70;1.00;;;;;;5013749;28;20183;-70
2023/06/26 00:53:00;;;;;;;7.50;6.67;;;19.60;1.00;;;;;;5013278;28;20407;-70
2023/06/26 00:55:26;;;;;;;7.90;7.10;;;19.60;1.00;;;;;;5012870;28;20176;-71
2023/06/26 00:57:52;;;;;;;8.23;6.73;;;19.40;1.00;;;;;;5012960;28;20407;-70
2023/06/26 01:00:18;;;;;;;8.87;7.97;;;19.40;1.00;;;;;;5013461;28;20418;-71
2023/06/26 01:02:44;;;;;;;10.43;6.70;;;19.30;1.00;;;;;;5013035;28;20214;-70
2023/06/26 01:05:12;;;;;;;7.87;7.10;;;19.20;1.00;;;;;;5013365;28;20442;-70
2023/06/26 01:07:39;;;;;;;7.63;6.40;;;19.20;1.00;;;;;;5013115;28;20192;-70
2023/06/26 01:10:06;;;;;;;8.87;7.97;;;19.10;1.00;;;;;;5013359;28;20804;-70
2023/06/26 01:12:33;;;;;;;9.50;7.80;;;19.10;1.00;;;;;;5012882;28;20424;-71
2023/06/26 01:14:59;;;;;;;6.77;6.07;;;19.10;1.00;;;;;;5013377;28;20462;-70
2023/06/26 01:17:31;;;;;;;6.83;6.20;;;19.00;1.00;;;;;;5013155;28;20422;-70
2023/06/26 01:20:06;;;;;;;9.10;7.77;;;19.00;1.00;;;;;;5013014;28;20441;-70
2023/06/26 01:22:56;;;;;;;8.33;7.20;;;18.90;1.00;;;;;;5012768;28;20414;-71
2023/06/26 01:25:38;;;;;;;8.50;7.40;;;18.80;1.00;;;;;;5013016;28;20419;-70
2023/06/26 01:28:06;;;;;;;9.37;7.80;;;18.70;1.00;;;;;;5012896;28;20529;-70
2023/06/26 01:30:33;;;;;;;9.30;6.43;;;18.70;1.00;;;;;;5012791;28;20525;-70
2023/06/26 01:33:00;;;;;;;7.73;6.30;;;18.60;1.00;;;;;;5012612;28;20498;-71
2023/06/26 01:35:26;;;;;;;7.90;6.70;;;18.60;1.00;;;;;;5012793;28;20927;-70
2023/06/26 01:37:52;;;;;;;8.00;7.20;;;18.60;1.00;;;;;;5012762;28;20411;-70
2023/06/26 01:40:18;;;;;;;7.77;6.97;;;18.50;1.00;;;;;;5013036;28;20499;-71
2023/06/26 01:42:43;;;;;;;8.37;7.53;;;18.50;1.00;;;;;;5012537;28;20626;-71
2023/06/26 01:45:23;;;;;;;8.17;7.37;;;18.50;1.00;;;;;;5012965;28;20263;-70
2023/06/26 01:47:51;;;;;;;8.80;7.57;;;18.50;1.00;;;;;;5012501;28;20211;-70
2023/06/26 01:50:22;;;;;;;8.80;7.13;;;18.40;1.00;;;;;;5012576;28;20426;-71
2023/06/26 01:53:04;;;;;;;8.00;7.20;;;18.30;1.00;;;;;;5012228;28;20403;-70
2023/06/26 01:55:54;;;;;;;8.90;6.57;;;18.30;1.00;;;;;;5012387;28;20443;-71
2023/06/26 01:58:25;;;;;;;10.20;5.77;;;18.20;1.00;;;;;;5012917;28;20461;-70
2023/06/26 02:00:50;;;;;;;6.70;6.10;;;18.20;1.00;;;;;;5012358;28;20454;-70
2023/06/26 02:03:16;;;;;;;8.57;6.97;;;18.10;1.30;;;;;;5012112;28;20894;-71
2023/06/26 02:05:41;;;;;;;9.53;7.40;;;18.00;1.60;;;;;;5012329;28;20183;-70
2023/06/26 02:08:08;;;;;;;9.37;7.57;;;18.00;1.60;;;;;;5012253;28;20273;-71
2023/06/26 02:10:34;;;;;;;10.30;7.20;;;17.90;2.20;;;;;;5012418;28;20630;-71
2023/06/26 02:13:01;;;;;;;8.50;6.20;;;17.90;2.00;;;;;;5012040;28;20439;-70
2023/06/26 02:15:26;;;;;;;9.83;8.47;;;17.80;1.90;;;;;;5012095;28;20668;-71
2023/06/26 02:17:52;;;;;;;8.47;7.57;;;17.80;1.80;;;;;;5012021;28;20423;-70
2023/06/26 02:20:17;;;;;;;8.27;7.33;;;17.80;2.40;;;;;;5012122;28;20271;-70
2023/06/26 02:22:43;;;;;;;7.97;7.17;;;17.80;2.70;;;;;;5011672;28;20214;-71
2023/06/26 02:25:10;;;;;;;7.60;6.57;;;17.80;2.80;;;;;;5011993;28;20215;-71
2023/06/26 02:27:35;;;;;;;8.47;7.57;;;17.70;3.40;;;;;;5010619;28;20215;-71
2023/06/26 02:30:01;;;;;;;8.93;7.00;;;17.70;3.60;;;;;;5012248;28;20567;-71
2023/06/26 02:32:26;;;;;;;6.30;5.70;;;17.60;3.80;;;;;;5011853;28;20184;-71
2023/06/26 02:34:52;;;;;;;8.70;7.70;;;17.60;3.20;;;;;;5012130;28;20180;-69
2023/06/26 02:37:18;;;;;;;11.50;7.70;;;17.60;3.90;;;;;;5012024;28;20230;-70
2023/06/26 02:39:43;;;;;;;7.10;5.80;;;17.60;3.70;;;;;;5011857;28;20203;-69
2023/06/26 02:42:09;;;;;;;6.93;5.30;;;17.60;3.90;;;;;;5010506;28;20905;-70
2023/06/26 02:44:34;;;;;;;7.53;6.63;;;17.60;3.80;;;;;;5011878;28;20172;-70
2023/06/26 02:47:00;;;;;;;8.40;6.80;;;17.60;4.20;;;;;;5011817;28;20291;-69
2023/06/26 02:49:26;;;;;;;8.50;7.23;;;17.50;4.10;;;;;;5011775;28;20239;-70
2023/06/26 02:51:51;;;;;;;7.47;6.77;;;17.40;4.10;;;;;;5011990;28;20194;-70
2023/06/26 02:54:17;;;;;;;8.10;6.40;;;17.40;4.30;;;;;;5012292;28;20183;-69
2023/06/26 02:56:42;;;;;;;9.57;6.83;;;17.40;4.60;;;;;;5012173;28;20266;-70
2023/06/26 02:59:08;;;;;;;9.63;6.20;;;17.30;4.70;;;;;;5011749;28;20242;-70
2023/06/26 03:01:34;;;;;;;10.57;7.50;;;17.30;5.30;;;;;;5011636;28;20547;-71
2023/06/26 03:04:00;;;;;;;7.07;5.50;;;17.20;5.60;;;;;;5011802;28;20600;-70
2023/06/26 03:06:27;;;;;;;7.60;5.83;;;17.20;5.60;;;;;;5011540;28;20802;-70
2023/06/26 03:08:53;;;;;;;9.90;7.47;;;17.10;5.60;;;;;;5010488;28;20439;-70
2023/06/26 03:11:19;;;;;;;8.77;7.40;;;17.10;5.60;;;;;;5011619;28;20414;-70
2023/06/26 03:13:44;;;;;;;9.23;6.67;;;17.10;6.00;;;;;;5011441;28;20426;-70
2023/06/26 03:16:10;;;;;;;8.60;6.97;;;17.20;6.60;;;;;;5011299;28;20176;-71
2023/06/26 03:18:36;;;;;;;8.03;6.67;;;17.10;6.80;;;;;;5012220;28;20200;-70
2023/06/26 03:21:01;;;;;;;11.43;8.27;;;17.10;6.80;;;;;;5014447;28;20188;-70
2023/06/26 03:23:27;;;;;;;7.70;5.80;;;17.10;7.10;;;;;;5014560;28;20183;-70
2023/06/26 03:25:53;;;;;;;7.60;6.60;;;17.00;7.00;;;;;;5014757;28;20180;-71
2023/06/26 03:28:19;;;;;;;12.20;6.87;;;17.00;6.80;;;;;;5015638;28;20219;-70
2023/06/26 03:30:45;;;;;;;9.67;7.40;;;16.90;6.90;;;;;;5015542;28;20518;-70
2023/06/26 03:33:11;;;;;;;9.27;7.00;;;16.90;7.20;;;;;;5014170;28;20186;-69
2023/06/26 03:35:39;;;;;;;10.20;6.83;;;16.90;7.30;;;;;;5015369;28;20200;-70
2023/06/26 03:38:05;;;;;;;8.90;7.03;;;16.90;8.00;;;;;;5015305;28;20447;-70
2023/06/26 03:40:31;;;;;;;11.57;8.00;;;16.90;7.30;;;;;;5015418;28;20505;-71
2023/06/26 03:42:56;;;;;;;9.10;7.10;;;16.90;7.60;;;;;;5014967;28;20865;-70
2023/06/26 03:45:22;;;;;;;9.83;7.03;;;16.90;7.60;;;;;;5015421;28;20558;-71
2023/06/26 03:47:49;;;;;;;7.47;6.30;;;16.90;7.70;;;;;;5015085;28;20653;-71
2023/06/26 03:50:18;;;;;;;9.30;6.90;;;16.90;7.70;;;;;;5015191;28;20172;-71
2023/06/26 03:52:43;;;;;;;10.37;7.80;;;17.00;7.90;;;;;;5014980;28;20529;-71
2023/06/26 03:55:09;;;;;;;9.00;6.90;;;17.00;8.00;;;;;;5013623;28;20502;-70
2023/06/26 03:57:35;;;;;;;7.87;6.97;;;16.90;8.00;;;;;;5015024;28;20593;-71
2023/06/26 04:00:00;;;;;;;8.63;7.10;;;17.00;8.10;;;;;;5014725;28;20579;-71
2023/06/26 04:02:26;;;;;;;8.90;7.00;;;16.90;8.10;;;;;;5014823;28;20188;-70
2023/06/26 04:04:52;;;;;;;9.10;5.53;;;16.90;8.00;;;;;;5014715;28;20188;-70
2023/06/26 04:07:18;;;;;;;8.80;6.97;;;16.90;7.80;;;;;;5014828;28;20548;-70
2023/06/26 04:09:44;;;;;;;9.60;7.77;;;17.00;7.80;;;;;;5013316;28;20227;-70
2023/06/26 04:12:10;;;;;;;10.80;7.37;;;17.10;7.90;;;;;;5013220;28;20963;-71
2023/06/26 04:14:35;;;;;;;9.00;6.43;;;17.00;7.70;;;;;;5014550;28;20540;-71
2023/06/26 04:17:03;;;;;;;8.03;7.23;;;17.10;7.70;;;;;;5014984;28;20321;-71
2023/06/26 04:19:29;;;;;;;10.17;6.50;;;17.10;7.60;;;;;;5014784;28;20203;-71
2023/06/26 04:21:54;;;;;;;7.17;6.13;;;17.10;7.60;;;;;;5014732;28;20427;-71
2023/06/26 04:24:20;;;;;;;8.03;6.97;;;17.20;7.20;;;;;;5015033;28;20422;-71
2023/06/26 04:26:45;;;;;;;8.07;7.27;;;17.20;7.00;;;;;;5014471;28;20238;-71
2023/06/26 04:29:11;;;;;;;9.57;7.23;;;17.30;6.90;;;;;;5014464;28;20222;-71
2023/06/26 04:31:37;;;;;;;7.63;6.60;;;17.40;6.60;;;;;;5013940;28;20184;-71
2023/06/26 04:34:04;;;;;;;10.00;7.03;;;17.40;6.20;;;;;;5014295;28;20184;-71
2023/06/26 04:36:31;;;;;;;7.60;6.20;;;17.50;5.90;;;;;;5014071;28;20526;-71
2023/06/26 04:38:57;;;;;;;8.13;6.73;;;17.60;5.90;;;;;;5012667;28;20797;-71
2023/06/26 04:41:23;;;;;;;9.40;6.63;;;17.70;5.60;;;;;;5013953;28;20453;-71
2023/06/26 04:43:48;;;;;;;6.40;5.80;;;17.80;5.10;;;;;;5013976;28;20852;-70
2023/06/26 04:46:14;;;;;;;6.83;5.97;;;17.80;4.70;;;;;;5014142;28;20192;-72
2023/06/26 04:48:39;;;;;;;7.57;5.87;;;17.90;4.80;;;;;;5013857;28;20202;-70
2023/06/26 04:51:05;;;;;;;8.87;6.20;;;18.00;4.70;;;;;;5014129;28;20176;-71
2023/06/26 04:53:30;;;;;;;7.67;6.60;;;18.10;4.70;;;;;;5013656;28;20180;-71
2023/06/26 04:55:56;;;;;;;10.83;6.77;;;18.20;4.60;;;;;;5013846;28;20183;-70
2023/06/26 04:58:22;;;;;;;6.57;5.97;;;18.40;4.40;;;;;;5013736;28;20522;-71
2023/06/26 05:00:48;;;;;;;10.20;6.97;;;18.50;4.30;;;;;;5013825;28;20184;-71
2023/06/26 05:03:17;;;;;;;7.40;6.70;;;18.60;4.30;;;;;;5013935;28;20644;-71
2023/06/26 05:05:43;;;;;;;8.87;7.57;;;18.60;4.10;;;;;;5012385;28;20577;-71
2023/06/26 05:08:21;;;;;;;7.90;6.27;;;18.70;4.60;;;;;;5013576;28;20560;-71
2023/06/26 05:10:47;;;;;;;7.63;6.60;;;18.80;3.90;;;;;;5013706;28;20422;-71
2023/06/26 05:13:17;;;;;;;7.37;6.17;;;19.00;3.90;;;;;;5013577;28;20424;-72
2023/06/26 05:15:47;;;;;;;8.00;6.60;;;19.10;4.00;;;;;;5013613;28;20195;-72
2023/06/26 05:18:12;;;;;;;7.77;6.57;;;19.20;3.40;;;;;;5011968;28;20534;-72
2023/06/26 05:20:38;;;;;;;7.97;6.77;;;19.30;3.40;;;;;;5013501;28;20510;-72
2023/06/26 05:23:04;;;;;;;18.60;7.30;;;19.40;3.20;;;;;;5011699;28;20183;-71
2023/06/26 05:25:31;;;;;;;8.17;6.80;;;19.60;3.10;;;;;;5013478;28;20478;-73
2023/06/26 05:27:58;;;;;;;20.80;8.33;;;19.70;3.50;;;;;;5011972;28;20984;-73
2023/06/26 05:30:25;;;;;;;31.73;8.10;;;19.90;1.80;;;;;;5011917;28;20418;-72
2023/06/26 05:32:52;;;;;;;11.00;8.30;;;20.20;2.50;;;;;;5012875;28;20437;-72
2023/06/26 05:35:19;;;;;;;7.47;6.60;;;20.40;1.00;;;;;;5013407;28;20498;-70
2023/06/26 05:37:47;;;;;;;9.07;6.67;;;20.60;1.00;;;;;;5013254;28;20426;-70
2023/06/26 05:40:14;;;;;;;7.87;6.60;;;20.90;1.00;;;;;;5013088;28;20418;-69
2023/06/26 05:42:40;;;;;;;21.43;9.13;;;21.40;1.00;;;;;;5012141;28;20432;-71
2023/06/26 05:45:06;;;;;;;16.90;8.53;;;22.90;1.00;;;;;;5013000;28;20798;-69
2023/06/26 05:47:31;;;;;;;17.80;9.27;;;25.90;1.00;;;;;;5012743;28;20262;-70
2023/06/26 05:49:57;;;;;;;13.77;9.30;;;28.50;1.00;;;;;;5012730;28;20438;-70
2023/06/26 05:52:24;;;;;;;10.80;9.80;;;31.00;1.00;;;;;;5012516;28;20183;-70
2023/06/26 05:54:50;;;;;;;9.40;8.50;;;32.70;1.00;;;;;;5012822;28;20195;-70
2023/06/26 05:57:16;;;;;;;8.83;8.03;;;34.60;1.00;;;;;;5012956;28;20904;-70
2023/06/26 05:59:43;;;;;;;9.97;9.17;;;35.40;1.00;;;;;;5012453;28;20948;-69
2023/06/26 06:02:09;;;;;;;9.67;8.70;;;36.40;1.00;;;;;;5012588;28;20497;-69
2023/06/26 06:04:35;;;;;;;8.83;8.03;;;37.60;1.00;;;;;;5011239;28;20485;-71
2023/06/26 06:07:00;;;;;;;8.87;8.17;;;37.00;1.00;;;;;;5012542;28;20226;-71
2023/06/26 06:09:26;;;;;;;8.67;7.97;;;37.60;1.00;;;;;;5012439;28;20550;-70
2023/06/26 06:11:51;;;;;;;9.30;8.50;;;38.70;1.00;;;;;;5010909;28;20192;-69
2023/06/26 06:14:17;;;;;;;9.10;7.80;;;39.50;1.00;;;;;;5010471;28;20191;-70
2023/06/26 06:16:46;;;;;;;9.93;9.13;;;40.50;1.00;;;;;;5012570;28;20202;-70
2023/06/26 06:19:13;;;;;;;7.47;6.90;;;41.40;1.00;;;;;;5012367;28;20203;-71
2023/06/26 06:21:39;;;;;;;8.67;7.97;;;42.20;1.00;;;;;;5010507;28;20435;-71
2023/06/26 06:24:06;;;;;;;9.67;8.87;;;42.70;1.00;;;;;;5012129;28;20441;-71
2023/06/26 06:26:32;;;;;;;10.30;9.33;;;43.10;1.00;;;;;;5011915;28;20208;-71
2023/06/26 06:28:57;;;;;;;9.20;8.23;;;42.50;1.00;;;;;;5012564;28;20438;-71
2023/06/26 06:31:23;;;;;;;8.97;8.07;;;42.50;1.00;;;;;;5012252;28;20192;-72
2023/06/26 06:33:48;;;;;;;8.80;8.10;;;42.50;1.00;;;;;;5011815;28;20245;-73
2023/06/26 06:36:14;;;;;;;8.33;7.73;;;42.50;1.00;;;;;;5011992;28;20249;-70
2023/06/26 06:38:45;;;;;;;8.30;7.67;;;41.00;1.00;;;;;;5010188;28;20698;-72
2023/06/26 06:41:12;;;;;;;8.07;7.40;;;39.40;1.00;;;;;;5010955;28;20195;-73
2023/06/26 06:43:38;;;;;;;8.20;7.40;;;40.70;1.00;;;;;;5012462;28;20431;-72
2023/06/26 06:46:04;;;;;;;9.00;8.27;;;42.00;1.00;;;;;;5012819;28;20431;-73
2023/06/26 06:48:30;;;;;;;8.63;7.97;;;42.50;1.00;;;;;;5011489;28;20226;-70
2023/06/26 06:50:56;;;;;;;9.80;9.00;;;42.70;1.00;;;;;;5012077;28;20518;-71
2023/06/26 06:53:22;;;;;;;9.40;8.47;;;43.40;1.00;;;;;;5011893;28;20522;-69
2023/06/26 06:55:49;;;;;;;9.13;8.20;;;43.30;1.00;;;;;;5013843;28;20183;-70
2023/06/26 06:58:16;;;;;;;9.47;8.70;;;43.10;1.00;;;;;;5008660;28;20470;-71
2023/06/26 07:00:42;;;;;;;12.63;8.23;;;44.10;1.00;;;;;;5002820;28;20952;-71
2023/06/26 07:03:07;;;;;;;9.17;8.10;;;44.90;1.00;;;;;;5013201;28;20440;-71
2023/06/26 07:05:33;;;;;;;7.73;7.20;;;44.00;1.00;;;;;;5006862;28;20193;-71
2023/06/26 07:07:58;;;;;;;8.63;8.03;;;43.50;1.00;;;;;;5003439;28;20258;-71
2023/06/26 07:10:24;;;;;;;8.27;7.33;;;44.00;1.00;;;;;;5010915;28;20234;-70
2023/06/26 07:12:50;;;;;;;9.57;8.60;;;44.10;1.00;;;;;;5013996;28;20191;-70
2023/06/26 07:15:16;;;;;;;7.90;7.30;;;44.20;1.00;;;;;;5015930;28;20184;-70
2023/06/26 07:17:42;;;;;;;10.37;8.70;;;44.50;1.00;;;;;;5015327;28;20172;-70
2023/06/26 07:20:09;;;;;;;8.30;7.70;;;44.90;1.00;;;;;;5012940;28;20483;-70
2023/06/26 07:22:36;;;;;;;9.23;7.93;;;44.40;1.00;;;;;;5015268;28;20219;-70
2023/06/26 07:25:03;;;;;;;7.37;6.77;;;45.40;1.00;;;;;;5012851;28;20453;-70
2023/06/26 07:27:29;;;;;;;7.87;7.27;;;44.90;1.00;;;;;;5011294;28;20469;-70
2023/06/26 07:29:55;;;;;;;7.83;7.13;;;45.10;1.00;;;;;;5015195;28;20439;-70
2023/06/26 07:32:20;;;;;;;7.73;7.20;;;45.90;1.00;;;;;;5015055;28;20744;-70
2023/06/26 07:34:46;;;;;;;9.13;7.30;;;45.40;1.00;;;;;;5015206;28;20184;-70
2023/06/26 07:37:12;;;;;;;6.60;6.20;;;44.60;1.00;;;;;;5014475;28;20184;-70
2023/06/26 07:39:37;;;;;;;7.67;7.20;;;44.60;1.00;;;;;;5010407;28;20203;-71
2023/06/26 07:42:03;;;;;;;10.50;8.83;;;43.60;1.00;;;;;;5010958;28;20689;-71
2023/06/26 07:44:29;;;;;;;7.50;6.70;;;44.40;1.00;;;;;;5010917;28;20176;-71
2023/06/26 07:46:54;;;;;;;7.50;6.97;;;42.80;1.00;;;;;;5009723;28;20254;-71
2023/06/26 07:49:20;;;;;;;7.73;7.13;;;41.80;1.00;;;;;;5010824;28;20703;-71
2023/06/26 07:51:45;;;;;;;7.77;7.17;;;41.70;1.00;;;;;;5010420;28;20267;-71
2023/06/26 07:54:11;;;;;;;6.90;6.43;;;41.10;1.00;;;;;;5011146;28;20195;-71
2023/06/26 07:57:12;;;;;;;8.03;7.47;;;42.10;1.00;;;;;;4990500;28;20189;-71
2023/06/26 07:59:38;;;;;;;7.33;6.77;;;41.70;1.00;;;;;;4961899;28;20761;-70
2023/06/26 08:02:04;;;;;;;10.63;8.47;;;41.10;1.00;;;;;;4986393;28;20463;-69
2023/06/26 08:04:31;;;;;;;7.23;6.73;;;41.90;1.00;;;;;;4991034;28;20437;-70
2023/06/26 08:06:58;;;;;;;7.20;6.60;;;41.30;1.00;;;;;;4990169;28;20197;-70
2023/06/26 08:09:26;;;;;;;6.20;5.80;;;41.00;1.00;;;;;;5000627;28;20446;-69
2023/06/26 08:11:52;;;;;;;7.03;6.53;;;41.80;1.00;;;;;;5011059;28;20419;-70
2023/06/26 08:14:18;;;;;;;7.00;6.50;;;41.20;1.00;;;;;;5009736;28;20431;-69
2023/06/26 08:16:44;;;;;;;6.97;6.37;;;41.60;1.00;;;;;;5004253;28;20200;-70
2023/06/26 08:19:13;;;;;;;7.10;6.60;;;41.10;1.00;;;;;;4997545;28;20454;-71
2023/06/26 08:21:40;;;;;;;7.40;6.90;;;41.60;1.00;;;;;;5010111;28;20561;-70
2023/06/26 08:24:06;;;;;;;8.83;7.53;;;43.00;1.00;;;;;;5001266;28;20781;-70
2023/06/26 08:26:32;;;;;;;7.43;6.83;;;42.60;1.00;;;;;;5004401;28;20446;-70
2023/06/26 08:28:57;;;;;;;7.10;6.53;;;42.90;1.00;;;;;;5009861;28;20200;-71
2023/06/26 08:31:23;;;;;;;6.57;6.03;;;42.20;1.00;;;;;;5002243;28;20189;-70
2023/06/26 08:33:49;;;;;;;6.73;6.23;;;42.30;1.00;;;;;;4991470;28;20184;-77
2023/06/26 08:36:14;;;;;;;7.67;7.00;;;42.20;1.00;;;;;;5006907;28;20192;-75
2023/06/26 08:38:40;;;;;;;7.67;6.87;;;41.40;1.00;;;;;;5008244;28;20542;-74
2023/06/26 08:41:07;;;;;;;6.53;6.03;;;41.70;1.00;;;;;;5009822;28;20569;-75
2023/06/26 08:43:33;;;;;;;7.40;6.53;;;44.80;1.00;;;;;;5002433;28;20697;-74
2023/06/26 08:45:59;;;;;;;7.27;6.77;;;45.10;1.00;;;;;;4990717;28;20787;-73
2023/06/26 08:48:25;;;;;;;7.43;6.93;;;44.30;1.00;;;;;;4996468;28;21116;-72
2023/06/26 08:50:53;;;;;;;6.57;6.10;;;43.00;1.00;;;;;;5009364;28;20435;-72
2023/06/26 08:53:34;;;;;;;7.50;7.00;;;43.50;1.00;;;;;;5008956;28;20199;-72
2023/06/26 08:56:00;;;;;;;7.63;6.93;;;44.00;1.00;;;;;;5008413;28;20419;-73
2023/06/26 08:58:26;;;;;;;7.20;6.70;;;42.50;1.00;;;;;;5008996;28;20458;-73
2023/06/26 09:00:56;;;;;;;6.60;6.20;;;42.40;1.00;;;;;;5009962;28;21043;-72
2023/06/26 09:03:23;;;;;;;9.43;7.17;;;41.70;1.00;;;;;;5009827;28;20964;-72
2023/06/26 09:05:51;;;;;;;6.50;6.10;;;43.50;1.00;;;;;;5009757;28;20466;-73
2023/06/26 09:08:16;;;;;;;6.83;6.33;;;42.90;1.00;;;;;;5010321;28;20455;-74
2023/06/26 09:10:42;;;;;;;8.00;7.30;;;42.20;1.00;;;;;;5010535;28;20829;-74
2023/06/26 09:13:08;;;;;;;7.30;6.80;;;42.70;1.00;;;;;;5008773;28;20725;-74
2023/06/26 09:15:54;;;;;;;7.33;6.83;;;42.00;1.00;;;;;;5010820;28;20187;-74
2023/06/26 09:18:21;;;;;;;8.57;7.77;;;41.40;1.00;;;;;;5007150;28;20200;-73
2023/06/26 09:20:47;;;;;;;8.27;7.67;;;40.90;1.00;;;;;;4997478;28;20427;-73
2023/06/26 09:23:13;;;;;;;7.60;7.00;;;39.10;1.00;;;;;;4989622;28;20922;-73
2023/06/26 09:25:41;;;;;;;7.33;6.63;;;37.60;1.00;;;;;;4990705;28;20538;-73
2023/06/26 09:28:06;;;;;;;6.90;6.40;;;35.80;1.00;;;;;;5009276;28;20482;-73
2023/06/26 09:30:32;;;;;;;9.60;8.53;;;35.10;1.00;;;;;;5012034;28;20461;-74
2023/06/26 09:33:14;;;;;;;6.90;6.40;;;34.30;1.00;;;;;;5011074;28;20650;-73
2023/06/26 09:35:39;;;;;;;7.30;6.73;;;34.00;1.00;;;;;;5009101;28;20453;-73
2023/06/26 09:38:07;;;;;;;8.50;7.87;;;33.10;1.00;;;;;;5008967;28;20466;-72
2023/06/26 09:40:35;;;;;;;8.67;8.07;;;32.90;1.00;;;;;;5008663;28;20565;-72
2023/06/26 09:43:07;;;;;;;7.70;7.10;;;32.80;1.00;;;;;;5008406;28;20477;-72
2023/06/26 09:45:36;;;;;;;8.83;8.03;;;32.80;1.00;;;;;;5009328;28;20426;-72
2023/06/26 09:48:02;;;;;;;8.67;7.97;;;32.60;1.00;;;;;;5009300;28;20477;-72
2023/06/26 09:50:29;;;;;;;8.37;7.33;;;32.40;1.00;;;;;;5009041;28;20510;-72
2023/06/26 09:52:55;;;;;;;8.57;7.90;;;32.60;1.00;;;;;;5012616;28;20568;-72
2023/06/26 09:55:24;;;;;;;7.30;6.70;;;32.30;1.00;;;;;;5012496;28;20423;-74
2023/06/26 09:57:51;;;;;;;7.40;6.80;;;32.30;1.00;;;;;;5014541;28;20792;-72
2023/06/26 10:00:18;;;;;;;7.83;7.07;;;32.50;1.00;;;;;;5015035;28;20504;-73
2023/06/26 10:02:44;;;;;;;7.53;6.97;;;32.50;1.00;;;;;;5015466;28;20419;-73
2023/06/26 10:05:09;;;;;;;7.70;7.10;;;32.50;1.00;;;;;;5014862;28;21000;-73
2023/06/26 10:07:37;;;;;;;7.13;6.63;;;32.60;1.00;;;;;;5015355;28;20471;-74
2023/06/26 10:10:04;;;;;;;7.77;7.20;;;32.70;1.00;;;;;;5014149;28;20176;-72
2023/06/26 10:12:31;;;;;;;8.27;7.47;;;32.50;1.00;;;;;;5013231;28;20418;-72
2023/06/26 10:14:58;;;;;;;10.03;8.77;;;32.80;1.00;;;;;;5013943;28;20407;-73
2023/06/26 10:17:27;;;;;;;8.00;7.20;;;32.90;1.00;;;;;;5014311;28;20768;-73
2023/06/26 10:19:56;;;;;;;8.33;7.47;;;33.40;1.00;;;;;;5008823;28;20501;-73
2023/06/26 10:22:25;;;;;;;7.80;7.10;;;33.30;1.00;;;;;;5012120;28;20582;-74
2023/06/26 10:24:52;;;;;;;7.63;7.03;;;33.30;1.00;;;;;;5013867;28;20417;-73
2023/06/26 10:27:20;;;;;;;7.50;6.90;;;33.20;1.00;;;;;;5013540;28;20520;-73
2023/06/26 10:29:54;;;;;;;7.60;7.00;;;33.40;1.00;;;;;;5013959;28;20710;-73
2023/06/26 10:32:23;;;;;;;6.80;6.30;;;33.60;1.00;;;;;;5013998;28;20407;-73
2023/06/26 10:34:49;;;;;;;10.10;9.20;;;33.40;1.00;;;;;;5014281;28;20415;-72
2023/06/26 10:37:15;;;;;;;6.93;6.23;;;33.50;1.00;;;;;;5014646;28;20947;-73
2023/06/26 10:39:51;;;;;;;8.23;7.43;;;33.40;1.00;;;;;;5014847;28;20450;-74
2023/06/26 10:42:33;;;;;;;8.30;6.77;;;34.00;1.00;;;;;;5013903;28;20180;-73
2023/06/26 10:45:19;;;;;;;8.37;7.60;;;34.50;1.00;;;;;;5013778;28;20473;-73
2023/06/26 10:47:51;;;;;;;7.20;6.60;;;34.80;1.00;;;;;;5013385;28;20464;-73
2023/06/26 10:50:24;;;;;;;8.23;7.53;;;34.60;1.00;;;;;;5012903;28;20422;-73
2023/06/26 10:53:13;;;;;;;6.57;6.00;;;34.50;1.00;;;;;;5012771;28;20515;-73
2023/06/26 10:55:46;;;;;;;8.90;8.20;;;34.60;1.00;;;;;;5013235;28;20754;-73
2023/06/26 10:58:40;;;;;;;7.73;6.93;;;34.40;1.00;;;;;;5011433;28;20459;-70
2023/06/26 11:01:14;;;;;;;8.07;7.37;;;34.50;1.00;;;;;;5012099;28;20870;-70
2023/06/26 11:03:44;;;;;;;8.07;7.27;;;34.00;1.00;;;;;;5009150;28;20815;-71
2023/06/26 11:06:11;;;;;;;8.57;7.87;;;33.60;1.00;;;;;;5012088;28;20423;-70
2023/06/26 11:08:53;;;;;;;8.40;7.73;;;32.90;1.00;;;;;;5011752;28;20477;-70
2023/06/26 11:11:19;;;;;;;9.60;8.63;;;32.90;1.00;;;;;;5010548;28;20470;-71
2023/06/26 11:13:46;;;;;;;7.67;7.17;;;33.20;1.00;;;;;;5011701;28;20897;-71
2023/06/26 11:16:13;;;;;;;8.53;7.70;;;33.50;1.00;;;;;;5011826;28;20494;-70
2023/06/26 11:18:38;;;;;;;8.57;7.93;;;33.50;1.00;;;;;;5011920;28;20453;-70
2023/06/26 11:21:14;;;;;;;7.93;7.23;;;33.20;1.00;;;;;;5011895;28;20510;-70
2023/06/26 11:23:40;;;;;;;9.03;8.30;;;33.00;1.00;;;;;;5012035;28;20179;-70
2023/06/26 11:26:21;;;;;;;8.43;7.73;;;32.80;1.00;;;;;;5011944;28;20798;-70
2023/06/26 11:28:56;;;;;;;8.43;7.83;;;32.70;1.00;;;;;;5012405;28;20481;-71
2023/06/26 11:31:25;;;;;;;6.87;6.37;;;32.30;1.00;;;;;;5012055;28;20445;-70
2023/06/26 11:33:51;;;;;;;9.40;8.40;;;32.50;1.00;;;;;;5011869;28;20411;-70
2023/06/26 11:36:17;;;;;;;9.30;8.40;;;32.50;1.00;;;;;;5012152;28;20418;-68
2023/06/26 11:38:42;;;;;;;8.00;7.40;;;32.80;1.00;;;;;;5010442;28;20862;-69
2023/06/26 11:41:08;;;;;;;7.60;7.00;;;32.80;1.00;;;;;;5013650;28;20180;-70
2023/06/26 11:43:34;;;;;;;8.93;8.13;;;32.70;1.00;;;;;;5015174;28;20187;-70
2023/06/26 11:46:00;;;;;;;8.13;7.53;;;32.90;1.00;;;;;;5015174;28;20180;-70
2023/06/26 11:48:29;;;;;;;8.03;7.47;;;32.50;1.00;;;;;;5008272;28;20509;-70
2023/06/26 11:50:55;;;;;;;8.57;7.90;;;32.60;1.00;;;;;;5003956;28;20183;-70
2023/06/26 11:53:21;;;;;;;9.03;8.23;;;32.60;1.00;;;;;;4994157;28;20834;-69
2023/06/26 11:55:46;;;;;;;12.07;9.20;;;32.70;1.00;;;;;;5011153;28;20514;-69
2023/06/26 11:58:12;;;;;;;8.93;7.67;;;32.80;1.00;;;;;;5014886;28;20265;-70
2023/06/26 12:00:44;;;;;;;9.83;8.97;;;32.80;1.00;;;;;;5014788;28;20306;-73
2023/06/26 12:03:10;;;;;;;8.90;8.10;;;32.80;1.00;;;;;;5014752;28;20234;-70
2023/06/26 12:05:35;;;;;;;9.07;8.27;;;32.80;1.00;;;;;;5013332;28;20955;-70
2023/06/26 12:08:03;;;;;;;8.60;7.83;;;32.80;1.00;;;;;;5014167;28;20474;-72
2023/06/26 12:10:29;;;;;;;10.27;9.13;;;32.70;1.00;;;;;;5015140;28;20182;-72
2023/06/26 12:12:58;;;;;;;8.83;8.03;;;32.50;1.00;;;;;;5014895;28;20412;-74
2023/06/26 12:15:24;;;;;;;8.43;7.73;;;32.00;1.00;;;;;;5014772;28;20198;-73
2023/06/26 12:17:50;;;;;;;8.73;8.10;;;32.00;1.00;;;;;;5014740;28;20419;-71
2023/06/26 12:20:22;;;;;;;9.30;8.20;;;31.90;1.00;;;;;;5014933;28;20227;-73
2023/06/26 12:22:48;;;;;;;9.07;8.37;;;31.90;1.00;;;;;;5013133;28;20241;-71
2023/06/26 12:25:15;;;;;;;8.03;7.53;;;32.00;1.00;;;;;;5014834;28;20473;-73
2023/06/26 12:27:41;;;;;;;9.17;8.37;;;32.20;1.00;;;;;;5014746;28;20486;-74
2023/06/26 12:30:11;;;;;;;8.33;7.60;;;32.20;1.00;;;;;;5013745;28;20927;-74
2023/06/26 12:32:36;;;;;;;8.10;7.50;;;32.50;1.00;;;;;;5009107;28;20442;-72
2023/06/26 12:35:02;;;;;;;9.40;8.70;;;32.90;1.00;;;;;;5011953;28;20417;-73
2023/06/26 12:37:31;;;;;;;9.17;8.47;;;32.90;1.00;;;;;;5015567;28;20183;-75
2023/06/26 12:39:58;;;;;;;8.90;8.07;;;32.70;1.00;;;;;;5014765;28;20214;-73
2023/06/26 12:42:26;;;;;;;8.00;7.40;;;32.40;1.00;;;;;;5010026;28;20844;-74
2023/06/26 12:44:52;;;;;;;9.73;8.63;;;32.20;1.00;;;;;;4994733;28;20905;-74
2023/06/26 12:47:29;;;;;;;9.37;8.40;;;32.00;1.00;;;;;;4995404;28;20463;-75
2023/06/26 12:50:04;;;;;;;9.13;7.93;;;32.00;1.00;;;;;;5012255;28;20835;-75
2023/06/26 12:52:29;;;;;;;10.80;8.47;;;31.70;1.00;;;;;;5013030;28;20465;-73
2023/06/26 12:54:55;;;;;;;8.80;8.00;;;31.70;1.00;;;;;;5012969;28;20442;-74
2023/06/26 12:57:25;;;;;;;9.00;7.60;;;31.60;1.00;;;;;;5012874;28;20175;-75